sensor_id;sensor_type;location;lat;lon;timestamp;P1;durP1;ratioP1;P2;durP2;ratioP2
16612;SDS011;8419;52.358;9.752;2022-07-23T00:01:19;8.88;;;5.53;;
16612;SDS011;8419;52.358;9.752;2022-07-23T00:04:04;8.30;;;5.15;;
16612;SDS011;8419;52.358;9.752;2022-07-23T00:06:50;12.05;;;5.78;;
16612;SDS011;8419;52.358;9.752;2022-07-23T00:09:35;9.82;;;5.12;;
16612;SDS011;8419;52.358;9.752;2022-07-23T00:12:20;9.07;;;5.45;;
16612;SDS011;8419;52.358;9.752;2022-07-23T00:15:07;9.02;;;5.18;;
16612;SDS011;8419;52.358;9.752;2022-07-23T00:17:54;9.43;;;5.05;;
16612;SDS011;8419;52.358;9.752;2022-07-23T00:20:40;10.18;;;6.22;;
16612;SDS011;8419;52.358;9.752;2022-07-23T00:23:25;9.40;;;5.60;;
16612;SDS011;8419;52.358;9.752;2022-07-23T00:26:13;7.70;;;5.45;;
16612;SDS011;8419;52.358;9.752;2022-07-23T00:28:59;9.23;;;5.37;;
16612;SDS011;8419;52.358;9.752;2022-07-23T00:31:44;8.20;;;4.80;;
16612;SDS011;8419;52.358;9.752;2022-07-23T00:34:30;9.52;;;5.55;;
16612;SDS011;8419;52.358;9.752;2022-07-23T00:37:15;6.50;;;5.00;;
16612;SDS011;8419;52.358;9.752;2022-07-23T00:40:01;8.25;;;5.43;;
16612;SDS011;8419;52.358;9.752;2022-07-23T00:42:47;9.90;;;5.78;;
16612;SDS011;8419;52.358;9.752;2022-07-23T00:45:32;8.10;;;5.28;;
16612;SDS011;8419;52.358;9.752;2022-07-23T00:48:18;8.48;;;5.15;;
16612;SDS011;8419;52.358;9.752;2022-07-23T00:51:03;11.35;;;5.28;;
16612;SDS011;8419;52.358;9.752;2022-07-23T00:53:49;8.15;;;5.15;;
16612;SDS011;8419;52.358;9.752;2022-07-23T00:56:35;9.88;;;5.10;;
16612;SDS011;8419;52.358;9.752;2022-07-23T00:59:20;10.02;;;5.87;;
16612;SDS011;8419;52.358;9.752;2022-07-23T01:02:06;10.20;;;5.47;;
16612;SDS011;8419;52.358;9.752;2022-07-23T01:04:52;7.18;;;5.20;;
16612;SDS011;8419;52.358;9.752;2022-07-23T01:07:37;7.10;;;5.47;;
16612;SDS011;8419;52.358;9.752;2022-07-23T01:10:23;5.90;;;4.37;;
16612;SDS011;8419;52.358;9.752;2022-07-23T01:13:18;11.55;;;5.07;;
16612;SDS011;8419;52.358;9.752;2022-07-23T01:16:04;10.35;;;5.40;;
16612;SDS011;8419;52.358;9.752;2022-07-23T01:18:50;9.13;;;6.18;;
16612;SDS011;8419;52.358;9.752;2022-07-23T01:21:36;7.60;;;5.28;;
16612;SDS011;8419;52.358;9.752;2022-07-23T01:24:23;9.68;;;6.25;;
16612;SDS011;8419;52.358;9.752;2022-07-23T01:27:09;9.45;;;6.35;;
16612;SDS011;8419;52.358;9.752;2022-07-23T01:29:57;7.62;;;5.80;;
16612;SDS011;8419;52.358;9.752;2022-07-23T01:32:44;9.07;;;6.28;;
16612;SDS011;8419;52.358;9.752;2022-07-23T01:35:30;9.13;;;6.07;;
16612;SDS011;8419;52.358;9.752;2022-07-23T01:38:16;10.07;;;5.35;;
16612;SDS011;8419;52.358;9.752;2022-07-23T01:41:01;10.77;;;5.72;;
16612;SDS011;8419;52.358;9.752;2022-07-23T01:43:46;8.93;;;5.70;;
16612;SDS011;8419;52.358;9.752;2022-07-23T01:46:32;8.82;;;5.82;;
16612;SDS011;8419;52.358;9.752;2022-07-23T01:49:17;9.48;;;5.53;;
16612;SDS011;8419;52.358;9.752;2022-07-23T01:52:03;9.15;;;6.37;;
16612;SDS011;8419;52.358;9.752;2022-07-23T01:54:53;6.65;;;5.50;;
16612;SDS011;8419;52.358;9.752;2022-07-23T01:57:39;6.12;;;5.40;;
16612;SDS011;8419;52.358;9.752;2022-07-23T02:00:24;9.75;;;6.43;;
16612;SDS011;8419;52.358;9.752;2022-07-23T02:03:09;11.85;;;5.87;;
16612;SDS011;8419;52.358;9.752;2022-07-23T02:05:54;9.05;;;5.43;;
16612;SDS011;8419;52.358;9.752;2022-07-23T02:08:40;12.55;;;6.62;;
16612;SDS011;8419;52.358;9.752;2022-07-23T02:11:25;7.70;;;4.95;;
16612;SDS011;8419;52.358;9.752;2022-07-23T02:14:11;12.35;;;5.90;;
16612;SDS011;8419;52.358;9.752;2022-07-23T02:16:56;10.95;;;5.35;;
16612;SDS011;8419;52.358;9.752;2022-07-23T02:19:41;9.52;;;5.55;;
16612;SDS011;8419;52.358;9.752;2022-07-23T02:22:26;9.23;;;5.53;;
16612;SDS011;8419;52.358;9.752;2022-07-23T02:25:12;7.72;;;5.12;;
16612;SDS011;8419;52.358;9.752;2022-07-23T02:27:58;8.55;;;5.65;;
16612;SDS011;8419;52.358;9.752;2022-07-23T02:30:44;9.27;;;5.45;;
16612;SDS011;8419;52.358;9.752;2022-07-23T02:33:28;7.03;;;5.07;;
16612;SDS011;8419;52.358;9.752;2022-07-23T02:36:14;11.77;;;5.28;;
16612;SDS011;8419;52.358;9.752;2022-07-23T02:38:59;9.02;;;5.60;;
16612;SDS011;8419;52.358;9.752;2022-07-23T02:41:45;9.27;;;5.82;;
16612;SDS011;8419;52.358;9.752;2022-07-23T02:44:30;9.52;;;6.15;;
16612;SDS011;8419;52.358;9.752;2022-07-23T02:47:16;11.07;;;5.87;;
16612;SDS011;8419;52.358;9.752;2022-07-23T02:50:01;9.27;;;6.28;;
16612;SDS011;8419;52.358;9.752;2022-07-23T02:52:50;10.77;;;6.90;;
16612;SDS011;8419;52.358;9.752;2022-07-23T02:55:36;9.73;;;6.72;;
16612;SDS011;8419;52.358;9.752;2022-07-23T02:58:21;13.98;;;7.32;;
16612;SDS011;8419;52.358;9.752;2022-07-23T03:01:07;14.60;;;7.37;;
16612;SDS011;8419;52.358;9.752;2022-07-23T03:03:53;14.57;;;6.72;;
16612;SDS011;8419;52.358;9.752;2022-07-23T03:06:38;13.65;;;7.25;;
16612;SDS011;8419;52.358;9.752;2022-07-23T03:09:24;10.25;;;6.40;;
16612;SDS011;8419;52.358;9.752;2022-07-23T03:12:09;6.40;;;5.45;;
16612;SDS011;8419;52.358;9.752;2022-07-23T03:14:55;9.05;;;6.03;;
16612;SDS011;8419;52.358;9.752;2022-07-23T03:17:40;6.60;;;5.28;;
16612;SDS011;8419;52.358;9.752;2022-07-23T03:20:25;9.70;;;5.87;;
16612;SDS011;8419;52.358;9.752;2022-07-23T03:23:11;9.40;;;5.68;;
16612;SDS011;8419;52.358;9.752;2022-07-23T03:25:56;7.43;;;5.93;;
16612;SDS011;8419;52.358;9.752;2022-07-23T03:28:41;13.82;;;6.15;;
16612;SDS011;8419;52.358;9.752;2022-07-23T03:31:27;9.48;;;5.90;;
16612;SDS011;8419;52.358;9.752;2022-07-23T03:34:12;12.95;;;5.95;;
16612;SDS011;8419;52.358;9.752;2022-07-23T03:36:58;9.32;;;5.95;;
16612;SDS011;8419;52.358;9.752;2022-07-23T03:39:43;11.10;;;6.62;;
16612;SDS011;8419;52.358;9.752;2022-07-23T03:42:29;9.30;;;6.57;;
16612;SDS011;8419;52.358;9.752;2022-07-23T03:45:14;13.38;;;7.03;;
16612;SDS011;8419;52.358;9.752;2022-07-23T03:47:59;10.88;;;6.70;;
16612;SDS011;8419;52.358;9.752;2022-07-23T03:50:44;12.57;;;7.35;;
16612;SDS011;8419;52.358;9.752;2022-07-23T03:53:30;7.70;;;5.68;;
16612;SDS011;8419;52.358;9.752;2022-07-23T03:56:15;8.38;;;6.05;;
16612;SDS011;8419;52.358;9.752;2022-07-23T03:59:01;11.63;;;6.43;;
16612;SDS011;8419;52.358;9.752;2022-07-23T04:01:46;8.73;;;5.62;;
16612;SDS011;8419;52.358;9.752;2022-07-23T04:04:32;7.10;;;5.82;;
16612;SDS011;8419;52.358;9.752;2022-07-23T04:07:17;10.60;;;6.68;;
16612;SDS011;8419;52.358;9.752;2022-07-23T04:10:03;9.15;;;6.00;;
16612;SDS011;8419;52.358;9.752;2022-07-23T04:12:50;8.48;;;6.30;;
16612;SDS011;8419;52.358;9.752;2022-07-23T04:15:35;7.47;;;5.68;;
16612;SDS011;8419;52.358;9.752;2022-07-23T04:18:21;7.62;;;6.30;;
16612;SDS011;8419;52.358;9.752;2022-07-23T04:21:08;10.52;;;6.72;;
16612;SDS011;8419;52.358;9.752;2022-07-23T04:23:53;8.90;;;6.20;;
16612;SDS011;8419;52.358;9.752;2022-07-23T04:26:39;7.37;;;5.22;;
16612;SDS011;8419;52.358;9.752;2022-07-23T04:29:24;8.90;;;6.53;;
16612;SDS011;8419;52.358;9.752;2022-07-23T04:32:09;7.80;;;5.25;;
16612;SDS011;8419;52.358;9.752;2022-07-23T04:34:54;8.82;;;6.22;;
16612;SDS011;8419;52.358;9.752;2022-07-23T04:37:39;7.80;;;6.07;;
16612;SDS011;8419;52.358;9.752;2022-07-23T04:40:25;7.78;;;6.22;;
16612;SDS011;8419;52.358;9.752;2022-07-23T04:43:11;9.30;;;6.22;;
16612;SDS011;8419;52.358;9.752;2022-07-23T04:45:56;7.78;;;6.03;;
16612;SDS011;8419;52.358;9.752;2022-07-23T04:48:41;10.50;;;6.85;;
16612;SDS011;8419;52.358;9.752;2022-07-23T04:51:27;10.82;;;6.82;;
16612;SDS011;8419;52.358;9.752;2022-07-23T04:54:13;12.55;;;7.72;;
16612;SDS011;8419;52.358;9.752;2022-07-23T04:56:58;9.57;;;6.85;;
16612;SDS011;8419;52.358;9.752;2022-07-23T04:59:43;11.88;;;7.35;;
16612;SDS011;8419;52.358;9.752;2022-07-23T05:02:29;11.35;;;7.68;;
16612;SDS011;8419;52.358;9.752;2022-07-23T05:05:15;12.02;;;7.25;;
16612;SDS011;8419;52.358;9.752;2022-07-23T05:08:00;14.55;;;7.68;;
16612;SDS011;8419;52.358;9.752;2022-07-23T05:10:46;12.30;;;7.87;;
16612;SDS011;8419;52.358;9.752;2022-07-23T05:13:32;13.52;;;7.07;;
16612;SDS011;8419;52.358;9.752;2022-07-23T05:16:17;12.35;;;7.35;;
16612;SDS011;8419;52.358;9.752;2022-07-23T05:19:03;12.35;;;6.87;;
16612;SDS011;8419;52.358;9.752;2022-07-23T05:21:48;11.65;;;7.03;;
16612;SDS011;8419;52.358;9.752;2022-07-23T05:24:33;9.30;;;7.03;;
16612;SDS011;8419;52.358;9.752;2022-07-23T05:27:18;11.57;;;6.93;;
16612;SDS011;8419;52.358;9.752;2022-07-23T05:30:04;12.30;;;7.40;;
16612;SDS011;8419;52.358;9.752;2022-07-23T05:32:51;10.65;;;6.87;;
16612;SDS011;8419;52.358;9.752;2022-07-23T05:35:36;10.52;;;6.87;;
16612;SDS011;8419;52.358;9.752;2022-07-23T05:38:21;11.43;;;6.93;;
16612;SDS011;8419;52.358;9.752;2022-07-23T05:41:07;8.57;;;6.35;;
16612;SDS011;8419;52.358;9.752;2022-07-23T05:43:53;9.23;;;6.82;;
16612;SDS011;8419;52.358;9.752;2022-07-23T05:46:39;9.48;;;6.68;;
16612;SDS011;8419;52.358;9.752;2022-07-23T05:49:24;7.90;;;6.28;;
16612;SDS011;8419;52.358;9.752;2022-07-23T05:52:09;8.77;;;6.47;;
16612;SDS011;8419;52.358;9.752;2022-07-23T05:54:55;12.00;;;6.25;;
16612;SDS011;8419;52.358;9.752;2022-07-23T05:57:40;12.48;;;7.22;;
16612;SDS011;8419;52.358;9.752;2022-07-23T06:00:26;8.88;;;6.90;;
16612;SDS011;8419;52.358;9.752;2022-07-23T06:03:12;10.98;;;7.20;;
16612;SDS011;8419;52.358;9.752;2022-07-23T06:05:57;12.40;;;6.53;;
16612;SDS011;8419;52.358;9.752;2022-07-23T06:08:43;10.10;;;6.37;;
16612;SDS011;8419;52.358;9.752;2022-07-23T06:11:29;9.48;;;6.75;;
16612;SDS011;8419;52.358;9.752;2022-07-23T06:14:14;8.07;;;6.20;;
16612;SDS011;8419;52.358;9.752;2022-07-23T06:16:59;11.88;;;6.47;;
16612;SDS011;8419;52.358;9.752;2022-07-23T06:19:44;12.68;;;6.55;;
16612;SDS011;8419;52.358;9.752;2022-07-23T06:22:30;8.00;;;5.85;;
16612;SDS011;8419;52.358;9.752;2022-07-23T06:25:15;8.43;;;6.05;;
16612;SDS011;8419;52.358;9.752;2022-07-23T06:28:00;8.43;;;6.12;;
16612;SDS011;8419;52.358;9.752;2022-07-23T06:30:46;9.55;;;5.90;;
16612;SDS011;8419;52.358;9.752;2022-07-23T06:33:33;9.02;;;5.85;;
16612;SDS011;8419;52.358;9.752;2022-07-23T06:36:18;7.25;;;4.40;;
16612;SDS011;8419;52.358;9.752;2022-07-23T06:39:04;8.05;;;5.37;;
16612;SDS011;8419;52.358;9.752;2022-07-23T06:41:50;6.10;;;4.78;;
16612;SDS011;8419;52.358;9.752;2022-07-23T06:44:35;8.18;;;5.18;;
16612;SDS011;8419;52.358;9.752;2022-07-23T06:47:21;7.60;;;5.22;;
16612;SDS011;8419;52.358;9.752;2022-07-23T06:50:07;6.68;;;4.55;;
16612;SDS011;8419;52.358;9.752;2022-07-23T06:52:54;6.10;;;4.57;;
16612;SDS011;8419;52.358;9.752;2022-07-23T06:55:41;5.70;;;4.72;;
16612;SDS011;8419;52.358;9.752;2022-07-23T06:58:26;7.12;;;4.80;;
16612;SDS011;8419;52.358;9.752;2022-07-23T07:01:12;8.20;;;4.10;;
16612;SDS011;8419;52.358;9.752;2022-07-23T07:03:58;6.75;;;5.10;;
16612;SDS011;8419;52.358;9.752;2022-07-23T07:06:44;9.45;;;4.90;;
16612;SDS011;8419;52.358;9.752;2022-07-23T07:09:29;7.97;;;4.22;;
16612;SDS011;8419;52.358;9.752;2022-07-23T07:12:15;6.85;;;4.40;;
16612;SDS011;8419;52.358;9.752;2022-07-23T07:15:00;6.43;;;4.50;;
16612;SDS011;8419;52.358;9.752;2022-07-23T07:17:46;9.57;;;4.20;;
16612;SDS011;8419;52.358;9.752;2022-07-23T07:20:33;5.93;;;4.60;;
16612;SDS011;8419;52.358;9.752;2022-07-23T07:23:18;11.32;;;5.03;;
16612;SDS011;8419;52.358;9.752;2022-07-23T07:26:04;7.05;;;4.37;;
16612;SDS011;8419;52.358;9.752;2022-07-23T07:28:50;6.75;;;3.85;;
16612;SDS011;8419;52.358;9.752;2022-07-23T07:31:36;7.87;;;4.15;;
16612;SDS011;8419;52.358;9.752;2022-07-23T07:34:23;6.62;;;3.62;;
16612;SDS011;8419;52.358;9.752;2022-07-23T07:37:10;6.53;;;3.12;;
16612;SDS011;8419;52.358;9.752;2022-07-23T07:39:56;3.83;;;3.45;;
16612;SDS011;8419;52.358;9.752;2022-07-23T07:42:46;6.03;;;3.53;;
16612;SDS011;8419;52.358;9.752;2022-07-23T07:45:32;5.28;;;2.47;;
16612;SDS011;8419;52.358;9.752;2022-07-23T07:48:19;5.78;;;3.42;;
16612;SDS011;8419;52.358;9.752;2022-07-23T07:51:05;3.33;;;2.50;;
16612;SDS011;8419;52.358;9.752;2022-07-23T07:53:52;2.42;;;2.22;;
16612;SDS011;8419;52.358;9.752;2022-07-23T07:56:39;3.87;;;2.85;;
16612;SDS011;8419;52.358;9.752;2022-07-23T07:59:26;4.55;;;2.70;;
16612;SDS011;8419;52.358;9.752;2022-07-23T08:02:14;4.68;;;2.95;;
16612;SDS011;8419;52.358;9.752;2022-07-23T08:05:00;2.47;;;2.05;;
16612;SDS011;8419;52.358;9.752;2022-07-23T08:07:45;3.25;;;2.95;;
16612;SDS011;8419;52.358;9.752;2022-07-23T08:10:31;2.62;;;2.20;;
16612;SDS011;8419;52.358;9.752;2022-07-23T08:13:18;3.40;;;2.12;;
16612;SDS011;8419;52.358;9.752;2022-07-23T08:16:08;4.47;;;2.00;;
16612;SDS011;8419;52.358;9.752;2022-07-23T08:18:53;4.15;;;1.95;;
16612;SDS011;8419;52.358;9.752;2022-07-23T08:21:40;7.05;;;2.08;;
16612;SDS011;8419;52.358;9.752;2022-07-23T08:24:25;4.22;;;1.83;;
16612;SDS011;8419;52.358;9.752;2022-07-23T08:27:11;2.72;;;1.98;;
16612;SDS011;8419;52.358;9.752;2022-07-23T08:29:57;3.75;;;2.20;;
16612;SDS011;8419;52.358;9.752;2022-07-23T08:32:49;2.62;;;2.00;;
16612;SDS011;8419;52.358;9.752;2022-07-23T08:35:37;2.28;;;1.65;;
16612;SDS011;8419;52.358;9.752;2022-07-23T08:38:24;3.47;;;1.92;;
16612;SDS011;8419;52.358;9.752;2022-07-23T08:41:11;1.70;;;1.60;;
16612;SDS011;8419;52.358;9.752;2022-07-23T08:43:56;3.00;;;1.80;;
16612;SDS011;8419;52.358;9.752;2022-07-23T08:46:46;2.17;;;1.95;;
16612;SDS011;8419;52.358;9.752;2022-07-23T08:49:32;6.57;;;2.03;;
16612;SDS011;8419;52.358;9.752;2022-07-23T08:52:18;3.65;;;1.98;;
16612;SDS011;8419;52.358;9.752;2022-07-23T08:55:06;4.37;;;1.90;;
16612;SDS011;8419;52.358;9.752;2022-07-23T08:57:53;2.72;;;1.65;;
16612;SDS011;8419;52.358;9.752;2022-07-23T09:00:38;3.30;;;1.90;;
16612;SDS011;8419;52.358;9.752;2022-07-23T09:03:26;4.93;;;2.10;;
16612;SDS011;8419;52.358;9.752;2022-07-23T09:06:13;3.65;;;1.92;;
16612;SDS011;8419;52.358;9.752;2022-07-23T09:08:58;1.45;;;1.17;;
16612;SDS011;8419;52.358;9.752;2022-07-23T09:12:03;1.30;;;1.15;;
16612;SDS011;8419;52.358;9.752;2022-07-23T09:14:50;1.87;;;1.40;;
16612;SDS011;8419;52.358;9.752;2022-07-23T09:17:39;3.55;;;1.73;;
16612;SDS011;8419;52.358;9.752;2022-07-23T09:20:26;2.25;;;1.73;;
16612;SDS011;8419;52.358;9.752;2022-07-23T09:23:12;2.78;;;1.05;;
16612;SDS011;8419;52.358;9.752;2022-07-23T09:25:58;2.90;;;1.98;;
16612;SDS011;8419;52.358;9.752;2022-07-23T09:28:50;2.22;;;1.60;;
16612;SDS011;8419;52.358;9.752;2022-07-23T09:31:46;2.33;;;1.73;;
16612;SDS011;8419;52.358;9.752;2022-07-23T09:34:35;3.72;;;1.40;;
16612;SDS011;8419;52.358;9.752;2022-07-23T09:37:22;2.00;;;1.58;;
16612;SDS011;8419;52.358;9.752;2022-07-23T09:40:09;1.90;;;1.50;;
16612;SDS011;8419;52.358;9.752;2022-07-23T09:42:57;3.03;;;1.52;;
16612;SDS011;8419;52.358;9.752;2022-07-23T09:45:43;2.03;;;1.83;;
16612;SDS011;8419;52.358;9.752;2022-07-23T09:48:28;3.20;;;1.60;;
16612;SDS011;8419;52.358;9.752;2022-07-23T09:51:13;1.90;;;1.60;;
16612;SDS011;8419;52.358;9.752;2022-07-23T09:54:01;3.80;;;1.37;;
16612;SDS011;8419;52.358;9.752;2022-07-23T09:56:46;3.85;;;1.85;;
16612;SDS011;8419;52.358;9.752;2022-07-23T09:59:34;3.08;;;1.75;;
16612;SDS011;8419;52.358;9.752;2022-07-23T10:02:21;3.60;;;1.62;;
16612;SDS011;8419;52.358;9.752;2022-07-23T10:05:08;2.58;;;1.37;;
16612;SDS011;8419;52.358;9.752;2022-07-23T10:07:54;2.58;;;1.33;;
16612;SDS011;8419;52.358;9.752;2022-07-23T10:10:39;2.53;;;1.80;;
16612;SDS011;8419;52.358;9.752;2022-07-23T10:13:25;4.87;;;1.70;;
16612;SDS011;8419;52.358;9.752;2022-07-23T10:16:30;2.00;;;1.40;;
16612;SDS011;8419;52.358;9.752;2022-07-23T10:19:15;3.53;;;1.23;;
16612;SDS011;8419;52.358;9.752;2022-07-23T10:22:02;7.65;;;1.65;;
16612;SDS011;8419;52.358;9.752;2022-07-23T10:24:53;2.05;;;1.50;;
16612;SDS011;8419;52.358;9.752;2022-07-23T10:27:48;2.28;;;1.80;;
16612;SDS011;8419;52.358;9.752;2022-07-23T10:30:45;2.62;;;1.45;;
16612;SDS011;8419;52.358;9.752;2022-07-23T10:33:45;4.47;;;1.70;;
16612;SDS011;8419;52.358;9.752;2022-07-23T10:36:42;1.92;;;1.73;;
16612;SDS011;8419;52.358;9.752;2022-07-23T10:39:33;3.62;;;1.58;;
16612;SDS011;8419;52.358;9.752;2022-07-23T10:42:20;2.45;;;1.50;;
16612;SDS011;8419;52.358;9.752;2022-07-23T10:45:24;4.50;;;2.10;;
16612;SDS011;8419;52.358;9.752;2022-07-23T10:48:13;1.90;;;1.45;;
16612;SDS011;8419;52.358;9.752;2022-07-23T10:51:07;2.60;;;1.70;;
16612;SDS011;8419;52.358;9.752;2022-07-23T10:53:56;4.25;;;1.33;;
16612;SDS011;8419;52.358;9.752;2022-07-23T10:56:50;3.58;;;1.62;;
16612;SDS011;8419;52.358;9.752;2022-07-23T11:03:33;2.67;;;1.30;;
16612;SDS011;8419;52.358;9.752;2022-07-23T11:06:21;1.23;;;1.00;;
16612;SDS011;8419;52.358;9.752;2022-07-23T11:09:23;3.20;;;1.60;;
16612;SDS011;8419;52.358;9.752;2022-07-23T11:15:19;2.20;;;1.52;;
16612;SDS011;8419;52.358;9.752;2022-07-23T11:18:04;1.75;;;1.48;;
16612;SDS011;8419;52.358;9.752;2022-07-23T11:20:49;2.97;;;1.48;;
16612;SDS011;8419;52.358;9.752;2022-07-23T11:26:45;3.37;;;1.80;;
16612;SDS011;8419;52.358;9.752;2022-07-23T11:29:43;3.67;;;1.60;;
16612;SDS011;8419;52.358;9.752;2022-07-23T11:32:31;2.97;;;1.30;;
16612;SDS011;8419;52.358;9.752;2022-07-23T11:35:27;3.10;;;1.65;;
16612;SDS011;8419;52.358;9.752;2022-07-23T11:38:16;1.67;;;1.12;;
16612;SDS011;8419;52.358;9.752;2022-07-23T11:41:02;1.30;;;1.00;;
16612;SDS011;8419;52.358;9.752;2022-07-23T11:43:48;1.62;;;0.93;;
16612;SDS011;8419;52.358;9.752;2022-07-23T11:46:33;2.67;;;1.45;;
16612;SDS011;8419;52.358;9.752;2022-07-23T11:49:19;2.65;;;1.20;;
16612;SDS011;8419;52.358;9.752;2022-07-23T11:52:06;0.95;;;0.90;;
16612;SDS011;8419;52.358;9.752;2022-07-23T11:54:54;1.12;;;1.02;;
16612;SDS011;8419;52.358;9.752;2022-07-23T11:57:40;1.62;;;0.90;;
16612;SDS011;8419;52.358;9.752;2022-07-23T12:00:27;0.95;;;0.88;;
16612;SDS011;8419;52.358;9.752;2022-07-23T12:03:14;1.85;;;1.05;;
16612;SDS011;8419;52.358;9.752;2022-07-23T12:05:59;4.22;;;1.10;;
16612;SDS011;8419;52.358;9.752;2022-07-23T12:08:45;1.10;;;0.93;;
16612;SDS011;8419;52.358;9.752;2022-07-23T12:11:30;1.05;;;0.80;;
16612;SDS011;8419;52.358;9.752;2022-07-23T12:14:16;1.95;;;0.98;;
16612;SDS011;8419;52.358;9.752;2022-07-23T12:17:07;1.27;;;1.10;;
16612;SDS011;8419;52.358;9.752;2022-07-23T12:19:53;1.98;;;1.15;;
16612;SDS011;8419;52.358;9.752;2022-07-23T12:22:40;1.95;;;0.93;;
16612;SDS011;8419;52.358;9.752;2022-07-23T12:25:28;2.65;;;1.10;;
16612;SDS011;8419;52.358;9.752;2022-07-23T12:28:15;1.10;;;0.80;;
16612;SDS011;8419;52.358;9.752;2022-07-23T12:31:02;2.60;;;0.93;;
16612;SDS011;8419;52.358;9.752;2022-07-23T12:33:47;0.55;;;0.50;;
16612;SDS011;8419;52.358;9.752;2022-07-23T12:36:38;2.37;;;0.90;;
16612;SDS011;8419;52.358;9.752;2022-07-23T12:39:30;1.23;;;1.00;;
16612;SDS011;8419;52.358;9.752;2022-07-23T12:42:16;2.50;;;0.85;;
16612;SDS011;8419;52.358;9.752;2022-07-23T12:45:09;0.47;;;0.47;;
16612;SDS011;8419;52.358;9.752;2022-07-23T12:48:02;1.77;;;0.82;;
16612;SDS011;8419;52.358;9.752;2022-07-23T12:50:54;1.27;;;0.60;;
16612;SDS011;8419;52.358;9.752;2022-07-23T12:53:43;1.98;;;1.00;;
16612;SDS011;8419;52.358;9.752;2022-07-23T12:56:30;1.95;;;0.80;;
16612;SDS011;8419;52.358;9.752;2022-07-23T12:59:17;1.17;;;0.77;;
16612;SDS011;8419;52.358;9.752;2022-07-23T13:02:02;0.80;;;0.80;;
16612;SDS011;8419;52.358;9.752;2022-07-23T13:04:47;1.17;;;1.00;;
16612;SDS011;8419;52.358;9.752;2022-07-23T13:07:33;0.90;;;0.73;;
16612;SDS011;8419;52.358;9.752;2022-07-23T13:10:19;0.30;;;0.30;;
16612;SDS011;8419;52.358;9.752;2022-07-23T13:13:08;2.17;;;0.90;;
16612;SDS011;8419;52.358;9.752;2022-07-23T13:15:56;1.67;;;0.70;;
16612;SDS011;8419;52.358;9.752;2022-07-23T13:18:41;3.80;;;0.68;;
16612;SDS011;8419;52.358;9.752;2022-07-23T13:21:27;3.35;;;0.85;;
16612;SDS011;8419;52.358;9.752;2022-07-23T13:24:13;0.77;;;0.60;;
16612;SDS011;8419;52.358;9.752;2022-07-23T13:27:01;0.98;;;0.68;;
16612;SDS011;8419;52.358;9.752;2022-07-23T13:29:47;1.37;;;0.80;;
16612;SDS011;8419;52.358;9.752;2022-07-23T13:32:32;3.78;;;0.68;;
16612;SDS011;8419;52.358;9.752;2022-07-23T13:35:17;2.40;;;0.80;;
16612;SDS011;8419;52.358;9.752;2022-07-23T13:38:03;1.40;;;0.82;;
16612;SDS011;8419;52.358;9.752;2022-07-23T13:40:51;0.57;;;0.55;;
16612;SDS011;8419;52.358;9.752;2022-07-23T13:43:37;0.82;;;0.80;;
16612;SDS011;8419;52.358;9.752;2022-07-23T13:46:23;1.02;;;0.60;;
16612;SDS011;8419;52.358;9.752;2022-07-23T13:49:09;0.80;;;0.80;;
16612;SDS011;8419;52.358;9.752;2022-07-23T13:51:54;0.40;;;0.40;;
16612;SDS011;8419;52.358;9.752;2022-07-23T13:54:41;2.83;;;0.70;;
16612;SDS011;8419;52.358;9.752;2022-07-23T13:57:27;1.20;;;0.70;;
16612;SDS011;8419;52.358;9.752;2022-07-23T14:00:13;2.15;;;0.80;;
16612;SDS011;8419;52.358;9.752;2022-07-23T14:03:00;0.93;;;0.60;;
16612;SDS011;8419;52.358;9.752;2022-07-23T14:05:48;0.60;;;0.60;;
16612;SDS011;8419;52.358;9.752;2022-07-23T14:08:34;0.50;;;0.50;;
16612;SDS011;8419;52.358;9.752;2022-07-23T14:11:20;0.80;;;0.80;;
16612;SDS011;8419;52.358;9.752;2022-07-23T14:14:05;0.50;;;0.50;;
16612;SDS011;8419;52.358;9.752;2022-07-23T14:16:50;0.85;;;0.70;;
16612;SDS011;8419;52.358;9.752;2022-07-23T14:19:36;0.93;;;0.70;;
16612;SDS011;8419;52.358;9.752;2022-07-23T14:22:21;1.27;;;0.80;;
16612;SDS011;8419;52.358;9.752;2022-07-23T14:25:08;0.93;;;0.60;;
16612;SDS011;8419;52.358;9.752;2022-07-23T14:27:54;0.98;;;0.80;;
16612;SDS011;8419;52.358;9.752;2022-07-23T14:30:40;1.42;;;0.60;;
16612;SDS011;8419;52.358;9.752;2022-07-23T14:33:26;1.17;;;0.65;;
16612;SDS011;8419;52.358;9.752;2022-07-23T14:36:12;1.15;;;0.65;;
16612;SDS011;8419;52.358;9.752;2022-07-23T14:38:57;0.40;;;0.40;;
16612;SDS011;8419;52.358;9.752;2022-07-23T14:41:43;1.80;;;0.70;;
16612;SDS011;8419;52.358;9.752;2022-07-23T14:44:29;0.82;;;0.60;;
16612;SDS011;8419;52.358;9.752;2022-07-23T14:47:15;2.47;;;0.65;;
16612;SDS011;8419;52.358;9.752;2022-07-23T14:50:00;3.25;;;0.90;;
16612;SDS011;8419;52.358;9.752;2022-07-23T14:52:45;2.45;;;0.50;;
16612;SDS011;8419;52.358;9.752;2022-07-23T14:55:31;4.05;;;0.80;;
16612;SDS011;8419;52.358;9.752;2022-07-23T14:58:17;0.65;;;0.50;;
16612;SDS011;8419;52.358;9.752;2022-07-23T15:01:03;2.70;;;0.52;;
16612;SDS011;8419;52.358;9.752;2022-07-23T15:03:49;1.90;;;0.80;;
16612;SDS011;8419;52.358;9.752;2022-07-23T15:06:34;1.12;;;0.50;;
16612;SDS011;8419;52.358;9.752;2022-07-23T15:09:20;0.70;;;0.70;;
16612;SDS011;8419;52.358;9.752;2022-07-23T15:12:06;0.60;;;0.60;;
16612;SDS011;8419;52.358;9.752;2022-07-23T15:14:52;2.87;;;0.80;;
16612;SDS011;8419;52.358;9.752;2022-07-23T15:17:37;1.65;;;0.60;;
16612;SDS011;8419;52.358;9.752;2022-07-23T15:20:23;0.95;;;0.68;;
16612;SDS011;8419;52.358;9.752;2022-07-23T15:23:09;3.28;;;0.85;;
16612;SDS011;8419;52.358;9.752;2022-07-23T15:25:54;3.53;;;1.25;;
16612;SDS011;8419;52.358;9.752;2022-07-23T15:28:40;0.30;;;0.30;;
16612;SDS011;8419;52.358;9.752;2022-07-23T15:31:26;0.93;;;0.70;;
16612;SDS011;8419;52.358;9.752;2022-07-23T15:34:11;1.55;;;0.60;;
16612;SDS011;8419;52.358;9.752;2022-07-23T15:36:56;4.25;;;0.68;;
16612;SDS011;8419;52.358;9.752;2022-07-23T15:39:44;0.35;;;0.35;;
16612;SDS011;8419;52.358;9.752;2022-07-23T15:42:30;1.83;;;0.57;;
16612;SDS011;8419;52.358;9.752;2022-07-23T15:45:15;1.87;;;0.62;;
16612;SDS011;8419;52.358;9.752;2022-07-23T15:48:00;2.12;;;0.70;;
16612;SDS011;8419;52.358;9.752;2022-07-23T15:50:45;1.60;;;0.75;;
16612;SDS011;8419;52.358;9.752;2022-07-23T15:53:31;0.37;;;0.37;;
16612;SDS011;8419;52.358;9.752;2022-07-23T15:56:17;1.70;;;0.82;;
16612;SDS011;8419;52.358;9.752;2022-07-23T15:59:02;1.50;;;0.90;;
16612;SDS011;8419;52.358;9.752;2022-07-23T16:01:48;1.62;;;0.82;;
16612;SDS011;8419;52.358;9.752;2022-07-23T16:04:33;2.30;;;0.80;;
16612;SDS011;8419;52.358;9.752;2022-07-23T16:07:18;0.80;;;0.55;;
16612;SDS011;8419;52.358;9.752;2022-07-23T16:10:05;0.52;;;0.50;;
16612;SDS011;8419;52.358;9.752;2022-07-23T16:12:52;0.70;;;0.50;;
16612;SDS011;8419;52.358;9.752;2022-07-23T16:15:38;0.60;;;0.60;;
16612;SDS011;8419;52.358;9.752;2022-07-23T16:18:25;0.50;;;0.50;;
16612;SDS011;8419;52.358;9.752;2022-07-23T16:21:11;2.20;;;0.80;;
16612;SDS011;8419;52.358;9.752;2022-07-23T16:23:57;1.40;;;0.50;;
16612;SDS011;8419;52.358;9.752;2022-07-23T16:26:43;1.42;;;0.60;;
16612;SDS011;8419;52.358;9.752;2022-07-23T16:29:28;1.45;;;0.82;;
16612;SDS011;8419;52.358;9.752;2022-07-23T16:32:13;0.95;;;0.85;;
16612;SDS011;8419;52.358;9.752;2022-07-23T16:34:59;2.70;;;0.77;;
16612;SDS011;8419;52.358;9.752;2022-07-23T16:37:44;1.02;;;0.73;;
16612;SDS011;8419;52.358;9.752;2022-07-23T16:40:30;4.05;;;1.20;;
16612;SDS011;8419;52.358;9.752;2022-07-23T16:43:17;0.90;;;0.80;;
16612;SDS011;8419;52.358;9.752;2022-07-23T16:46:03;0.90;;;0.60;;
16612;SDS011;8419;52.358;9.752;2022-07-23T16:48:49;0.93;;;0.45;;
16612;SDS011;8419;52.358;9.752;2022-07-23T16:51:35;1.00;;;0.70;;
16612;SDS011;8419;52.358;9.752;2022-07-23T16:54:20;0.77;;;0.68;;
16612;SDS011;8419;52.358;9.752;2022-07-23T16:57:06;2.20;;;0.65;;
16612;SDS011;8419;52.358;9.752;2022-07-23T16:59:52;1.92;;;0.70;;
16612;SDS011;8419;52.358;9.752;2022-07-23T17:02:38;1.83;;;0.80;;
16612;SDS011;8419;52.358;9.752;2022-07-23T17:05:24;1.27;;;0.70;;
16612;SDS011;8419;52.358;9.752;2022-07-23T17:08:12;2.62;;;0.95;;